Archival Weather

Chicago O'Hare International

Chicago, Illinois (KORD)

Report from: Wednesday, February 7, 2024 3:51 PM CST
Current time: Wednesday, April 24, 2024 3:01 PM CDT

Current weather – Weather history – Daily summaries
Weather forecast

Temperature8.3°C (46.9°F)
Wind chill6.4°C (43.6°F)
Dew point0.0°C (32.0°F)
Winds 6 kts (3.1 m/s, 6.9 mph) South (190°)
Visibility10 mi. (16.1 km)
Clouds Scattered clouds 16,000 ft. (4,877 m)
Ceiling: Broken clouds 18,000 ft. (5,486 m)
Overcast 25,000 ft. (7,620 m)
Altimeter30.10 in.Hg (1019 mB)
Relative humidity56 %
Density altitude-936 ft. (-285 m)
Sea-level pressure102.0 kPa (1020 mB, 30.12 in.Hg)
Remarks Automated weather observing station with precipitation discriminator
Flight conditions Visual Meteorological Conditions
Raw dataKORD 072151Z 19006KT 10SM SCT160 BKN180 OVC250 08/00 A3010 RMK AO2 SLP199 T00830000
An error has occurred. This application may no longer respond until reloaded. Reload 🗙